createdAt,value
2018-09-24T00:00:47.260Z,1010.15
2018-09-24T00:01:47.256Z,1010.20
2018-09-24T00:02:47.247Z,1010.18
2018-09-24T00:03:47.243Z,1010.16
2018-09-24T00:04:47.234Z,1010.22
2018-09-24T00:05:47.229Z,1010.25
2018-09-24T00:06:47.223Z,1010.26
2018-09-24T00:07:47.217Z,1010.26
2018-09-24T00:08:47.213Z,1010.32
2018-09-24T00:09:47.202Z,1010.36
2018-09-24T00:10:47.201Z,1010.40
2018-09-24T00:11:47.194Z,1010.46
2018-09-24T00:12:47.187Z,1010.46
2018-09-24T00:13:47.181Z,1010.47
2018-09-24T00:14:47.178Z,1010.50
2018-09-24T00:15:47.169Z,1010.43
2018-09-24T00:16:47.164Z,1010.44
2018-09-24T00:17:47.156Z,1010.48
2018-09-24T00:18:47.153Z,1010.51
2018-09-24T00:19:47.147Z,1010.51
2018-09-24T00:20:48.092Z,1010.57
2018-09-24T00:21:47.136Z,1010.52
2018-09-24T00:22:47.127Z,1010.56
2018-09-24T00:23:47.121Z,1010.58
2018-09-24T00:24:47.115Z,1010.63
2018-09-24T00:25:47.108Z,1010.61
2018-09-24T00:26:47.101Z,1010.64
2018-09-24T00:27:47.117Z,1010.61
2018-09-24T00:28:47.090Z,1010.63
2018-09-24T00:29:47.083Z,1010.67
2018-09-24T00:30:47.079Z,1010.79
2018-09-24T00:31:47.073Z,1010.74
2018-09-24T00:32:47.069Z,1010.77
2018-09-24T00:33:47.060Z,1010.75
2018-09-24T00:34:47.055Z,1010.75
2018-09-24T00:35:47.052Z,1010.72
2018-09-24T00:36:47.042Z,1010.82
2018-09-24T00:37:47.046Z,1010.79
2018-09-24T00:38:47.027Z,1010.77
2018-09-24T00:39:47.026Z,1010.84
2018-09-24T00:40:47.017Z,1010.83
2018-09-24T00:41:47.013Z,1010.87
2018-09-24T00:42:47.005Z,1010.87
2018-09-24T00:43:47.001Z,1010.90
2018-09-24T00:44:46.991Z,1010.94
2018-09-24T00:45:46.986Z,1010.92
2018-09-24T00:46:46.983Z,1010.92
2018-09-24T00:47:46.979Z,1010.93
2018-09-24T00:48:46.966Z,1010.99
2018-09-24T00:49:46.963Z,1011.00
2018-09-24T00:50:46.959Z,1011.03
2018-09-24T00:51:46.952Z,1011.05
2018-09-24T00:52:46.946Z,1011.07
2018-09-24T00:53:46.937Z,1011.04
2018-09-24T00:54:46.929Z,1011.12
2018-09-24T00:55:46.923Z,1011.12
2018-09-24T00:56:46.918Z,1011.10
2018-09-24T00:57:46.912Z,1011.15
2018-09-24T00:58:46.908Z,1011.21
2018-09-24T00:59:46.900Z,1011.16
2018-09-24T01:00:46.896Z,1011.20
2018-09-24T01:01:46.892Z,1011.20
2018-09-24T01:02:46.884Z,1011.19
2018-09-24T01:03:46.874Z,1011.16
2018-09-24T01:04:46.870Z,1011.25
2018-09-24T01:05:46.864Z,1011.36
2018-09-24T01:06:46.856Z,1011.35
2018-09-24T01:07:46.851Z,1011.32
2018-09-24T01:08:46.848Z,1011.37
2018-09-24T01:09:46.839Z,1011.40
2018-09-24T01:10:46.831Z,1011.41
2018-09-24T01:11:46.825Z,1011.46
2018-09-24T01:12:46.824Z,1011.46
2018-09-24T01:13:46.812Z,1011.50
2018-09-24T01:14:46.810Z,1011.50
2018-09-24T01:15:46.796Z,1011.58
2018-09-24T01:16:46.795Z,1011.53
2018-09-24T01:17:46.787Z,1011.64
2018-09-24T01:18:46.780Z,1011.63
2018-09-24T01:19:46.777Z,1011.66
2018-09-24T01:20:46.768Z,1011.68
2018-09-24T01:21:46.763Z,1011.68
2018-09-24T01:22:46.757Z,1011.62
2018-09-24T01:23:47.604Z,1011.66
2018-09-24T01:24:46.751Z,1011.68
2018-09-24T01:25:46.736Z,1011.66
2018-09-24T01:26:46.732Z,1011.70
2018-09-24T01:27:46.725Z,1011.73
2018-09-24T01:28:46.719Z,1011.79
2018-09-24T01:29:46.712Z,1011.80
2018-09-24T01:30:46.705Z,1011.89
2018-09-24T01:31:46.700Z,1011.85
2018-09-24T01:32:46.703Z,1011.88
2018-09-24T01:33:46.686Z,1011.90
2018-09-24T01:34:46.680Z,1011.93
2018-09-24T01:35:46.672Z,1011.93
2018-09-24T01:36:46.669Z,1012.00
2018-09-24T01:37:46.659Z,1012.01
2018-09-24T01:38:46.654Z,1012.03
2018-09-24T01:39:46.651Z,1012.08
2018-09-24T01:40:46.644Z,1012.04
2018-09-24T01:41:46.635Z,1012.06
2018-09-24T01:42:46.629Z,1012.09
2018-09-24T01:43:46.622Z,1012.08
2018-09-24T01:44:46.616Z,1012.14
2018-09-24T01:45:46.610Z,1012.13
2018-09-24T01:46:46.613Z,1012.17
2018-09-24T01:47:46.596Z,1012.11
2018-09-24T01:48:46.600Z,1012.19
2018-09-24T01:49:46.598Z,1012.17
2018-09-24T01:50:46.578Z,1012.19
2018-09-24T01:51:46.572Z,1012.21
2018-09-24T01:52:46.565Z,1012.22
2018-09-24T01:53:46.559Z,1012.24
2018-09-24T01:54:46.553Z,1012.25
2018-09-24T01:55:46.549Z,1012.25
2018-09-24T01:56:46.539Z,1012.26
2018-09-24T01:57:46.533Z,1012.24
2018-09-24T01:58:46.526Z,1012.29
2018-09-24T01:59:46.521Z,1012.31
2018-09-24T02:00:46.515Z,1012.34
2018-09-24T02:01:46.512Z,1012.39
2018-09-24T02:02:46.502Z,1012.48
2018-09-24T02:03:46.500Z,1012.44
2018-09-24T02:04:46.489Z,1012.50
2018-09-24T02:05:46.485Z,1012.54
2018-09-24T02:06:46.477Z,1012.53
2018-09-24T02:07:46.478Z,1012.59
2018-09-24T02:08:46.462Z,1012.54
2018-09-24T02:09:46.459Z,1012.59
2018-09-24T02:10:46.452Z,1012.60
2018-09-24T02:11:46.448Z,1012.66
2018-09-24T02:12:46.438Z,1012.63
2018-09-24T02:13:46.433Z,1012.63
2018-09-24T02:14:46.428Z,1012.62
2018-09-24T02:15:46.417Z,1012.69
2018-09-24T02:16:46.412Z,1012.70
2018-09-24T02:17:46.408Z,1012.68
2018-09-24T02:18:46.397Z,1012.71
2018-09-24T02:19:46.393Z,1012.68
2018-09-24T02:20:46.386Z,1012.71
2018-09-24T02:21:46.380Z,1012.69
2018-09-24T02:22:46.374Z,1012.69
2018-09-24T02:23:46.368Z,1012.73
2018-09-24T02:24:46.359Z,1012.75
2018-09-24T02:25:46.356Z,1012.80
2018-09-24T02:26:46.348Z,1012.81
2018-09-24T02:27:46.343Z,1012.82
2018-09-24T02:28:46.335Z,1012.82
2018-09-24T02:29:46.328Z,1012.84
2018-09-24T02:30:46.322Z,1012.89
2018-09-24T02:31:46.318Z,1012.95
2018-09-24T02:32:46.307Z,1012.85
2018-09-24T02:33:46.302Z,1012.85
2018-09-24T02:34:46.299Z,1012.92
2018-09-24T02:35:46.291Z,1012.95
2018-09-24T02:36:46.280Z,1012.95
2018-09-24T02:37:46.278Z,1012.94
2018-09-24T02:38:46.271Z,1012.98
2018-09-24T02:39:46.264Z,1013.00
2018-09-24T02:40:46.253Z,1012.99
2018-09-24T02:41:46.250Z,1013.04
2018-09-24T02:42:46.246Z,1013.07
2018-09-24T02:43:46.241Z,1013.05
2018-09-24T02:44:46.233Z,1013.07
2018-09-24T02:45:46.228Z,1013.09
2018-09-24T02:46:46.216Z,1013.12
2018-09-24T02:47:46.211Z,1013.13
2018-09-24T02:48:46.213Z,1013.16
2018-09-24T02:49:46.202Z,1013.25
2018-09-24T02:50:46.203Z,1013.24
2018-09-24T02:51:46.184Z,1013.23
2018-09-24T02:52:46.181Z,1013.29
2018-09-24T02:53:46.171Z,1013.23
2018-09-24T02:54:46.167Z,1013.24
2018-09-24T02:55:46.160Z,1013.26
2018-09-24T02:56:46.154Z,1013.29
2018-09-24T02:57:46.150Z,1013.31
2018-09-24T02:58:46.140Z,1013.33
2018-09-24T02:59:46.136Z,1013.35
2018-09-24T03:00:46.129Z,1013.29
2018-09-24T03:01:46.123Z,1013.34
2018-09-24T03:02:46.119Z,1013.38
2018-09-24T03:03:46.110Z,1013.43
2018-09-24T03:04:46.102Z,1013.39
2018-09-24T03:05:46.101Z,1013.41
2018-09-24T03:06:46.094Z,1013.44
2018-09-24T03:07:46.086Z,1013.56
2018-09-24T03:08:46.081Z,1013.50
2018-09-24T03:09:46.071Z,1013.50
2018-09-24T03:10:46.067Z,1013.57
2018-09-24T03:11:46.061Z,1013.56
2018-09-24T03:12:46.698Z,1013.59
2018-09-24T03:13:46.044Z,1013.61
2018-09-24T03:14:46.045Z,1013.61
2018-09-24T03:15:46.031Z,1013.59
2018-09-24T03:16:46.026Z,1013.61
2018-09-24T03:17:46.013Z,1013.62
2018-09-24T03:18:46.019Z,1013.65
2018-09-24T03:19:46.006Z,1013.68
2018-09-24T03:20:45.998Z,1013.75
2018-09-24T03:21:45.998Z,1013.70
2018-09-24T03:22:45.992Z,1013.73
2018-09-24T03:23:45.978Z,1013.73
2018-09-24T03:24:45.970Z,1013.84
2018-09-24T03:25:45.963Z,1013.88
2018-09-24T03:26:45.964Z,1013.87
2018-09-24T03:27:46.704Z,1013.86
2018-09-24T03:28:45.945Z,1013.75
2018-09-24T03:29:45.938Z,1013.77
2018-09-24T03:30:45.935Z,1013.91
2018-09-24T03:31:45.928Z,1013.78
2018-09-24T03:32:45.918Z,1013.79
2018-09-24T03:33:45.913Z,1013.79
2018-09-24T03:34:45.906Z,1013.81
2018-09-24T03:35:45.901Z,1013.84
2018-09-24T03:36:45.898Z,1013.81
2018-09-24T03:37:45.887Z,1013.80
2018-09-24T03:38:45.886Z,1013.77
2018-09-24T03:39:45.874Z,1013.88
2018-09-24T03:40:45.869Z,1013.92
2018-09-24T03:41:45.920Z,1013.89
2018-09-24T03:42:45.859Z,1013.95
2018-09-24T03:43:45.849Z,1014.00
2018-09-24T03:44:45.845Z,1013.96
2018-09-24T03:45:45.837Z,1013.89
2018-09-24T03:46:45.833Z,1013.96
2018-09-24T03:47:45.818Z,1013.85
2018-09-24T03:48:45.814Z,1013.91
2018-09-24T03:49:45.805Z,1013.92
2018-09-24T03:50:45.801Z,1013.90
2018-09-24T03:51:45.794Z,1013.96
2018-09-24T03:52:45.795Z,1014.01
2018-09-24T03:53:45.785Z,1013.99
2018-09-24T03:54:45.780Z,1014.01
2018-09-24T03:55:45.774Z,1014.02
2018-09-24T03:56:45.761Z,1014.03
2018-09-24T03:57:45.758Z,1014.10
2018-09-24T03:58:45.760Z,1014.10
2018-09-24T03:59:45.743Z,1014.09
2018-09-24T04:00:45.734Z,1014.08
2018-09-24T04:01:45.730Z,1014.11
2018-09-24T04:02:45.728Z,1014.11
2018-09-24T04:03:45.716Z,1014.07
2018-09-24T04:04:45.710Z,1014.13
2018-09-24T04:05:45.703Z,1014.14
2018-09-24T04:06:45.697Z,1014.22
2018-09-24T04:07:45.694Z,1014.27
2018-09-24T04:08:45.683Z,1014.24
2018-09-24T04:09:45.749Z,1014.23
2018-09-24T04:10:45.770Z,1014.22
2018-09-24T04:11:45.665Z,1014.24
2018-09-24T04:12:45.656Z,1014.27
2018-09-24T04:13:45.651Z,1014.21
2018-09-24T04:14:45.649Z,1014.27
2018-09-24T04:15:45.631Z,1014.21
2018-09-24T04:16:45.630Z,1014.28
2018-09-24T04:17:45.630Z,1014.27
2018-09-24T04:18:45.615Z,1014.28
2018-09-24T04:19:45.611Z,1014.29
2018-09-24T04:20:45.606Z,1014.28
2018-09-24T04:21:45.597Z,1014.29
2018-09-24T04:22:45.591Z,1014.29
2018-09-24T04:23:45.583Z,1014.31
2018-09-24T04:24:45.576Z,1014.30
2018-09-24T04:25:45.569Z,1014.27
2018-09-24T04:26:45.567Z,1014.34
2018-09-24T04:27:45.556Z,1014.30
2018-09-24T04:28:45.551Z,1014.34
2018-09-24T04:29:45.539Z,1014.41
2018-09-24T04:30:45.540Z,1014.39
2018-09-24T04:31:45.533Z,1014.36
2018-09-24T04:32:45.524Z,1014.40
2018-09-24T04:33:45.517Z,1014.42
2018-09-24T04:34:45.511Z,1014.40
2018-09-24T04:35:45.503Z,1014.45
2018-09-24T04:36:45.496Z,1014.42
2018-09-24T04:37:45.490Z,1014.43
2018-09-24T04:38:45.485Z,1014.44
2018-09-24T04:39:45.475Z,1014.42
2018-09-24T04:40:45.468Z,1014.51
2018-09-24T04:41:45.463Z,1014.44
2018-09-24T04:42:45.456Z,1014.48
2018-09-24T04:43:45.448Z,1014.42
2018-09-24T04:44:45.442Z,1014.48
2018-09-24T04:45:45.447Z,1014.54
2018-09-24T04:46:45.439Z,1014.59
2018-09-24T04:47:46.148Z,1014.52
2018-09-24T04:48:45.410Z,1014.57
2018-09-24T04:49:45.412Z,1014.62
2018-09-24T04:50:45.403Z,1014.58
2018-09-24T04:51:45.397Z,1014.59
2018-09-24T04:52:45.399Z,1014.57
2018-09-24T04:53:45.383Z,1014.58
2018-09-24T04:54:45.373Z,1014.65
2018-09-24T04:55:45.369Z,1014.64
2018-09-24T04:56:45.367Z,1014.55
2018-09-24T04:57:45.354Z,1014.59
2018-09-24T04:58:45.413Z,1014.63
2018-09-24T04:59:45.343Z,1014.66
2018-09-24T05:00:45.338Z,1014.66
2018-09-24T05:01:45.330Z,1014.72
2018-09-24T05:02:45.327Z,1014.66
2018-09-24T05:03:45.316Z,1014.69
2018-09-24T05:04:45.305Z,1014.66
2018-09-24T05:05:45.301Z,1014.63
2018-09-24T05:06:45.292Z,1014.69
2018-09-24T05:07:45.287Z,1014.73
2018-09-24T05:08:45.287Z,1014.68
2018-09-24T05:09:45.276Z,1014.72
2018-09-24T05:10:45.271Z,1014.71
2018-09-24T05:11:45.262Z,1014.75
2018-09-24T05:12:45.252Z,1014.80
2018-09-24T05:13:45.258Z,1014.85
2018-09-24T05:14:45.241Z,1014.78
2018-09-24T05:15:45.234Z,1014.81
2018-09-24T05:16:45.227Z,1014.80
2018-09-24T05:17:45.222Z,1014.81
2018-09-24T05:18:45.216Z,1014.70
2018-09-24T05:19:45.206Z,1014.82
2018-09-24T05:20:45.197Z,1014.82
2018-09-24T05:21:45.192Z,1014.79
2018-09-24T05:22:45.187Z,1014.77
2018-09-24T05:23:45.179Z,1014.79
2018-09-24T05:24:45.173Z,1014.72
2018-09-24T05:25:45.168Z,1014.75
2018-09-24T05:26:45.168Z,1014.75
2018-09-24T05:27:45.169Z,1014.76
2018-09-24T05:28:45.146Z,1014.79
2018-09-24T05:29:45.142Z,1014.82
2018-09-24T05:30:45.137Z,1014.84
2018-09-24T05:31:45.131Z,1014.80
2018-09-24T05:32:45.118Z,1014.82
2018-09-24T05:33:45.108Z,1014.85
2018-09-24T05:34:45.104Z,1014.89
2018-09-24T05:35:45.101Z,1014.89
2018-09-24T05:36:45.096Z,1014.88
2018-09-24T05:37:45.094Z,1014.94
2018-09-24T05:38:45.087Z,1014.96
2018-09-24T05:39:45.082Z,1014.95
2018-09-24T05:40:45.069Z,1015.01
2018-09-24T05:41:45.063Z,1015.05
2018-09-24T05:42:45.053Z,1015.03
2018-09-24T05:43:45.050Z,1015.02
2018-09-24T05:44:45.041Z,1015.06
2018-09-24T05:45:45.037Z,1015.15
2018-09-24T05:46:45.030Z,1015.03
2018-09-24T05:47:45.024Z,1015.18
2018-09-24T05:48:45.016Z,1015.16
2018-09-24T05:49:45.006Z,1015.22
2018-09-24T05:50:45.001Z,1015.17
2018-09-24T05:51:44.994Z,1015.19
2018-09-24T05:52:44.989Z,1015.23
2018-09-24T05:53:44.984Z,1015.22
2018-09-24T05:54:44.978Z,1015.29
2018-09-24T05:55:44.972Z,1015.23
2018-09-24T05:56:44.963Z,1015.34
2018-09-24T05:57:44.958Z,1015.32
2018-09-24T05:58:44.951Z,1015.39
2018-09-24T05:59:44.947Z,1015.41
2018-09-24T06:00:44.937Z,1015.42
2018-09-24T06:01:44.932Z,1015.44
2018-09-24T06:02:44.926Z,1015.47
2018-09-24T06:03:45.737Z,1015.49
2018-09-24T06:04:44.914Z,1015.57
2018-09-24T06:05:44.903Z,1015.59
2018-09-24T06:06:44.900Z,1015.58
2018-09-24T06:07:44.895Z,1015.50
2018-09-24T06:08:44.886Z,1015.67
2018-09-24T06:09:44.879Z,1015.60
2018-09-24T06:10:44.885Z,1015.64
2018-09-24T06:11:44.868Z,1015.65
2018-09-24T06:12:44.861Z,1015.61
2018-09-24T06:13:44.905Z,1015.65
2018-09-24T06:14:44.849Z,1015.70
2018-09-24T06:15:44.840Z,1015.70
2018-09-24T06:16:44.837Z,1015.72
2018-09-24T06:17:44.841Z,1015.73
2018-09-24T06:18:44.820Z,1015.80
2018-09-24T06:19:44.822Z,1015.82
2018-09-24T06:20:44.811Z,1015.82
2018-09-24T06:21:44.808Z,1015.80
2018-09-24T06:22:44.798Z,1015.80
2018-09-24T06:23:44.796Z,1015.84
2018-09-24T06:24:44.789Z,1015.82
2018-09-24T06:25:44.779Z,1015.78
2018-09-24T06:26:44.779Z,1015.89
2018-09-24T06:27:44.772Z,1015.90
2018-09-24T06:28:44.763Z,1015.87
2018-09-24T06:29:44.758Z,1015.93
2018-09-24T06:30:44.758Z,1015.91
2018-09-24T06:31:44.754Z,1015.95
2018-09-24T06:32:44.741Z,1015.97
2018-09-24T06:33:44.737Z,1016.01
2018-09-24T06:34:44.730Z,1015.97
2018-09-24T06:35:44.728Z,1016.01
2018-09-24T06:36:44.730Z,1015.89
2018-09-24T06:37:44.716Z,1015.99
2018-09-24T06:38:44.711Z,1015.97
2018-09-24T06:39:44.712Z,1016.04
2018-09-24T06:40:44.703Z,1016.05
2018-09-24T06:41:44.697Z,1016.08
2018-09-24T06:42:44.702Z,1016.07
2018-09-24T06:43:44.689Z,1016.15
2018-09-24T06:44:44.687Z,1016.13
2018-09-24T06:45:44.686Z,1016.07
2018-09-24T06:46:44.677Z,1016.14
2018-09-24T06:47:44.671Z,1016.18
2018-09-24T06:48:44.667Z,1016.15
2018-09-24T06:49:44.752Z,1016.21
2018-09-24T06:50:44.660Z,1016.22
2018-09-24T06:51:44.656Z,1016.26
2018-09-24T06:52:44.650Z,1016.26
2018-09-24T06:53:44.643Z,1016.29
2018-09-24T06:54:44.646Z,1016.31
2018-09-24T06:55:44.639Z,1016.35
2018-09-24T06:56:44.632Z,1016.32
2018-09-24T06:57:44.632Z,1016.36
2018-09-24T06:58:44.626Z,1016.40
2018-09-24T06:59:44.652Z,1016.44
2018-09-24T07:00:44.619Z,1016.37
2018-09-24T07:01:44.614Z,1016.39
2018-09-24T07:02:44.610Z,1016.35
2018-09-24T07:03:44.605Z,1016.28
2018-09-24T07:04:44.602Z,1016.37
2018-09-24T07:05:44.654Z,1016.39
2018-09-24T07:06:44.593Z,1016.37
2018-09-24T07:07:44.588Z,1016.43
2018-09-24T07:08:44.582Z,1016.42
2018-09-24T07:09:44.576Z,1016.45
2018-09-24T07:10:44.577Z,1016.46
2018-09-24T07:11:44.573Z,1016.55
2018-09-24T07:12:44.566Z,1016.46
2018-09-24T07:13:44.560Z,1016.46
2018-09-24T07:14:44.553Z,1016.55
2018-09-24T07:15:44.548Z,1016.51
2018-09-24T07:16:44.545Z,1016.60
2018-09-24T07:17:44.544Z,1016.61
2018-09-24T07:18:44.533Z,1016.64
2018-09-24T07:19:44.530Z,1016.62
2018-09-24T07:20:44.523Z,1016.59
2018-09-24T07:21:44.520Z,1016.64
2018-09-24T07:22:44.526Z,1016.66
2018-09-24T07:23:44.509Z,1016.72
2018-09-24T07:24:44.505Z,1016.75
2018-09-24T07:25:44.503Z,1016.76
2018-09-24T07:26:44.493Z,1016.72
2018-09-24T07:27:44.553Z,1016.72
2018-09-24T07:28:44.485Z,1016.79
2018-09-24T07:29:44.477Z,1016.77
2018-09-24T07:30:44.474Z,1016.76
2018-09-24T07:31:44.469Z,1016.85
2018-09-24T07:32:44.464Z,1016.81
2018-09-24T07:33:44.458Z,1016.89
2018-09-24T07:34:44.459Z,1016.90
2018-09-24T07:35:44.450Z,1016.94
2018-09-24T07:36:44.445Z,1016.93
2018-09-24T07:37:44.437Z,1016.96
2018-09-24T07:38:44.435Z,1016.97
2018-09-24T07:39:44.432Z,1016.94
2018-09-24T07:40:44.422Z,1016.97
2018-09-24T07:41:44.419Z,1016.99
2018-09-24T07:42:44.412Z,1017.13
2018-09-24T07:43:44.410Z,1017.02
2018-09-24T07:44:44.404Z,1017.04
2018-09-24T07:45:44.397Z,1017.00
2018-09-24T07:46:44.393Z,1017.04
2018-09-24T07:47:44.391Z,1017.15
2018-09-24T07:48:44.384Z,1017.13
2018-09-24T07:49:44.377Z,1017.12
2018-09-24T07:50:44.373Z,1017.05
2018-09-24T07:51:44.368Z,1017.20
2018-09-24T07:52:44.363Z,1017.21
2018-09-24T07:53:44.359Z,1017.28
2018-09-24T07:54:44.355Z,1017.36
2018-09-24T07:55:44.347Z,1017.18
2018-09-24T07:56:44.345Z,1017.20
2018-09-24T07:57:44.339Z,1017.23
2018-09-24T07:58:44.336Z,1017.21
2018-09-24T07:59:44.331Z,1017.28
2018-09-24T08:00:44.321Z,1017.24
2018-09-24T08:01:44.317Z,1017.23
2018-09-24T08:02:44.310Z,1017.39
2018-09-24T08:03:44.308Z,1017.19
2018-09-24T08:04:44.302Z,1017.35
2018-09-24T08:05:44.296Z,1017.30
2018-09-24T08:06:44.303Z,1017.35
2018-09-24T08:07:44.285Z,1017.39
2018-09-24T08:08:44.281Z,1017.40
2018-09-24T08:09:44.276Z,1017.45
2018-09-24T08:10:44.274Z,1017.52
2018-09-24T08:11:44.773Z,1017.47
2018-09-24T08:12:44.323Z,1017.47
2018-09-24T08:13:44.258Z,1017.45
2018-09-24T08:14:44.255Z,1017.49
2018-09-24T08:15:44.247Z,1017.53
2018-09-24T08:16:44.246Z,1017.52
2018-09-24T08:17:44.241Z,1017.61
2018-09-24T08:18:44.234Z,1017.61
2018-09-24T08:19:44.229Z,1017.67
2018-09-24T08:20:44.223Z,1017.54
2018-09-24T08:21:44.215Z,1017.65
2018-09-24T08:22:44.215Z,1017.62
2018-09-24T08:23:44.205Z,1017.54
2018-09-24T08:24:44.205Z,1017.72
2018-09-24T08:25:44.199Z,1017.82
2018-09-24T08:26:44.195Z,1017.71
2018-09-24T08:27:44.190Z,1017.78
2018-09-24T08:28:44.198Z,1017.80
2018-09-24T08:29:44.178Z,1017.81
2018-09-24T08:30:44.175Z,1017.90
2018-09-24T08:31:44.169Z,1017.89
2018-09-24T08:32:44.163Z,1017.86
2018-09-24T08:33:44.162Z,1017.87
2018-09-24T08:34:44.154Z,1017.94
2018-09-24T08:35:44.150Z,1017.89
2018-09-24T08:36:44.145Z,1017.87
2018-09-24T08:37:44.139Z,1017.96
2018-09-24T08:38:44.139Z,1018.04
2018-09-24T08:39:44.130Z,1017.81
2018-09-24T08:40:44.128Z,1018.10
2018-09-24T08:41:44.123Z,1018.17
2018-09-24T08:42:44.116Z,1017.97
2018-09-24T08:43:44.113Z,1018.19
2018-09-24T08:44:44.108Z,1018.04
2018-09-24T08:45:44.112Z,1018.12
2018-09-24T08:46:44.101Z,1018.15
2018-09-24T08:47:44.096Z,1018.21
2018-09-24T08:48:44.090Z,1018.16
2018-09-24T08:49:44.111Z,1018.26
2018-09-24T08:50:44.081Z,1018.29
2018-09-24T08:51:44.079Z,1018.20
2018-09-24T08:52:44.077Z,1018.30
2018-09-24T08:53:44.068Z,1018.26
2018-09-24T08:54:44.082Z,1018.34
2018-09-24T08:55:44.062Z,1018.24
2018-09-24T08:56:44.103Z,1018.34
2018-09-24T08:57:44.051Z,1018.38
2018-09-24T08:58:44.050Z,1018.42
2018-09-24T08:59:44.042Z,1018.28
2018-09-24T09:00:44.038Z,1018.45
2018-09-24T09:01:44.034Z,1018.36
2018-09-24T09:02:44.107Z,1018.38
2018-09-24T09:03:44.026Z,1018.37
2018-09-24T09:04:44.020Z,1018.44
2018-09-24T09:05:44.019Z,1018.37
2018-09-24T09:06:44.013Z,1018.31
2018-09-24T09:07:44.010Z,1018.31
2018-09-24T09:08:44.006Z,1018.34
2018-09-24T09:09:44.709Z,1018.47
2018-09-24T09:10:43.995Z,1018.36
2018-09-24T09:11:44.706Z,1018.42
2018-09-24T09:12:43.988Z,1018.50
2018-09-24T09:13:43.986Z,1018.45
2018-09-24T09:14:43.981Z,1018.53
2018-09-24T09:15:43.977Z,1018.49
2018-09-24T09:16:43.973Z,1018.50
2018-09-24T09:17:43.973Z,1018.52
2018-09-24T09:18:43.963Z,1018.48
2018-09-24T09:19:43.962Z,1018.50
2018-09-24T09:20:43.955Z,1018.49
2018-09-24T09:21:43.952Z,1018.57
2018-09-24T09:22:43.950Z,1018.59
2018-09-24T09:23:43.947Z,1018.73
2018-09-24T09:24:43.941Z,1018.51
2018-09-24T09:25:43.938Z,1018.46
2018-09-24T09:26:43.934Z,1018.64
2018-09-24T09:27:43.928Z,1018.62
2018-09-24T09:28:43.924Z,1018.61
2018-09-24T09:29:43.921Z,1018.64
2018-09-24T09:30:43.917Z,1018.74
2018-09-24T09:31:43.913Z,1018.60
2018-09-24T09:32:43.908Z,1018.61
2018-09-24T09:33:43.906Z,1018.69
2018-09-24T09:34:43.902Z,1018.64
2018-09-24T09:35:43.897Z,1018.86
2018-09-24T09:36:43.895Z,1018.67
2018-09-24T09:37:43.896Z,1018.80
2018-09-24T09:38:43.886Z,1018.72
2018-09-24T09:39:43.881Z,1018.68
2018-09-24T09:40:43.877Z,1018.72
2018-09-24T09:41:43.872Z,1018.74
2018-09-24T09:42:43.875Z,1018.75
2018-09-24T09:43:43.868Z,1018.70
2018-09-24T09:44:43.865Z,1018.74
2018-09-24T09:45:43.860Z,1018.68
2018-09-24T09:46:43.923Z,1018.85
2018-09-24T09:47:44.717Z,1018.91
2018-09-24T09:48:43.847Z,1018.84
2018-09-24T09:49:43.844Z,1018.92
2018-09-24T09:50:43.851Z,1018.89
2018-09-24T09:51:43.837Z,1018.87
2018-09-24T09:52:43.836Z,1018.88
2018-09-24T09:53:43.858Z,1018.80
2018-09-24T09:54:43.827Z,1018.90
2018-09-24T09:55:43.825Z,1018.92
2018-09-24T09:56:43.815Z,1018.92
2018-09-24T09:57:43.814Z,1018.91
2018-09-24T09:58:43.811Z,1018.92
2018-09-24T09:59:43.805Z,1018.96
2018-09-24T10:00:43.802Z,1018.97
2018-09-24T10:01:43.797Z,1019.00
2018-09-24T10:02:43.794Z,1018.95
2018-09-24T10:03:43.791Z,1019.01
2018-09-24T10:04:43.888Z,1019.03
2018-09-24T10:05:43.785Z,1019.17
2018-09-24T10:06:43.777Z,1018.98
2018-09-24T10:07:43.778Z,1018.97
2018-09-24T10:08:43.777Z,1018.98
2018-09-24T10:09:43.770Z,1019.07
2018-09-24T10:10:43.767Z,1019.04
2018-09-24T10:11:43.763Z,1019.10
2018-09-24T10:12:43.757Z,1019.06
2018-09-24T10:13:43.755Z,1019.14
2018-09-24T10:14:43.752Z,1019.02
2018-09-24T10:15:43.749Z,1019.05
2018-09-24T10:16:43.744Z,1019.05
2018-09-24T10:17:43.740Z,1019.05
2018-09-24T10:18:43.769Z,1019.06
2018-09-24T10:19:44.299Z,1019.00
2018-09-24T10:20:43.728Z,1019.06
2018-09-24T10:21:43.726Z,1019.01
2018-09-24T10:22:43.787Z,1019.05
2018-09-24T10:23:43.719Z,1019.13
2018-09-24T10:24:43.714Z,1019.12
2018-09-24T10:25:43.718Z,1019.11
2018-09-24T10:26:43.710Z,1019.16
2018-09-24T10:27:43.705Z,1019.12
2018-09-24T10:28:43.702Z,1019.10
2018-09-24T10:29:43.698Z,1019.13
2018-09-24T10:30:43.695Z,1019.01
2018-09-24T10:31:43.691Z,1019.08
2018-09-24T10:32:43.724Z,1019.30
2018-09-24T10:33:43.747Z,1019.13
2018-09-24T10:34:43.680Z,1019.14
2018-09-24T10:35:43.675Z,1019.19
2018-09-24T10:36:43.673Z,1019.26
2018-09-24T10:37:43.668Z,1019.20
2018-09-24T10:38:43.665Z,1019.16
2018-09-24T10:39:43.716Z,1019.25
2018-09-24T10:40:43.657Z,1019.30
2018-09-24T10:41:43.656Z,1019.23
2018-09-24T10:42:43.656Z,1019.19
2018-09-24T10:43:43.647Z,1019.22
2018-09-24T10:44:43.645Z,1019.13
2018-09-24T10:45:43.641Z,1019.20
2018-09-24T10:46:43.634Z,1019.06
2018-09-24T10:47:43.633Z,1019.28
2018-09-24T10:48:43.631Z,1019.28
2018-09-24T10:49:43.625Z,1019.33
2018-09-24T10:50:43.623Z,1019.37
2018-09-24T10:51:43.618Z,1019.30
2018-09-24T10:52:43.617Z,1019.33
2018-09-24T10:53:43.611Z,1019.43
2018-09-24T10:54:43.609Z,1019.31
2018-09-24T10:55:43.626Z,1019.25
2018-09-24T10:56:43.605Z,1019.28
2018-09-24T10:57:43.601Z,1019.32
2018-09-24T10:58:43.595Z,1019.38
2018-09-24T10:59:43.595Z,1019.15
2018-09-24T11:00:43.591Z,1019.37
2018-09-24T11:01:43.584Z,1019.34
2018-09-24T11:02:43.582Z,1019.37
2018-09-24T11:03:43.584Z,1019.31
2018-09-24T11:04:43.631Z,1019.39
2018-09-24T11:05:43.571Z,1019.38
2018-09-24T11:06:44.312Z,1019.53
2018-09-24T11:07:43.565Z,1019.39
2018-09-24T11:08:43.563Z,1019.33
2018-09-24T11:09:43.557Z,1019.33
2018-09-24T11:10:43.555Z,1019.18
2018-09-24T11:11:43.550Z,1019.29
2018-09-24T11:12:43.547Z,1019.39
2018-09-24T11:13:43.547Z,1019.38
2018-09-24T11:14:43.541Z,1019.35
2018-09-24T11:15:43.576Z,1019.27
2018-09-24T11:16:43.708Z,1019.33
2018-09-24T11:17:43.625Z,1019.42
2018-09-24T11:18:43.530Z,1019.35
2018-09-24T11:19:43.528Z,1019.41
2018-09-24T11:20:43.522Z,1019.33
2018-09-24T11:21:43.520Z,1019.35
2018-09-24T11:22:43.519Z,1019.53
2018-09-24T11:23:43.595Z,1019.47
2018-09-24T11:24:43.510Z,1019.45
2018-09-24T11:25:43.509Z,1019.54
2018-09-24T11:26:43.509Z,1019.60
2018-09-24T11:27:43.505Z,1019.58
2018-09-24T11:28:43.503Z,1019.59
2018-09-24T11:29:43.512Z,1019.88
2018-09-24T11:30:43.498Z,1019.75
2018-09-24T11:31:43.493Z,1019.86
2018-09-24T11:32:43.489Z,1019.85
2018-09-24T11:33:43.489Z,1019.85
2018-09-24T11:34:43.485Z,1019.96
2018-09-24T11:35:43.481Z,1019.98
2018-09-24T11:36:43.480Z,1020.07
2018-09-24T11:37:43.476Z,1020.05
2018-09-24T11:38:43.474Z,1020.26
2018-09-24T11:39:43.473Z,1020.13
2018-09-24T11:40:43.467Z,1020.13
2018-09-24T11:41:43.465Z,1020.06
2018-09-24T11:42:43.461Z,1020.06
2018-09-24T11:43:43.461Z,1020.15
2018-09-24T11:44:43.455Z,1020.14
2018-09-24T11:45:43.453Z,1020.34
2018-09-24T11:46:43.528Z,1020.36
2018-09-24T11:47:43.447Z,1020.34
2018-09-24T11:48:43.442Z,1020.37
2018-09-24T11:49:43.439Z,1020.33
2018-09-24T11:50:43.434Z,1020.51
2018-09-24T11:51:43.431Z,1020.45
2018-09-24T11:52:43.427Z,1020.37
2018-09-24T11:53:43.425Z,1020.33
2018-09-24T11:54:43.418Z,1020.37
2018-09-24T11:55:43.413Z,1020.40
2018-09-24T11:56:43.408Z,1020.45
2018-09-24T11:57:43.407Z,1020.41
2018-09-24T11:58:43.399Z,1020.40
2018-09-24T11:59:43.394Z,1020.34
2018-09-24T12:00:43.393Z,1020.29
2018-09-24T12:01:43.385Z,1020.28
2018-09-24T12:02:43.385Z,1020.32
2018-09-24T12:03:43.378Z,1020.31
2018-09-24T12:04:43.373Z,1020.26
2018-09-24T12:05:43.372Z,1020.26